East Bangor, Pennsylvania
Current Conditions -  °F | °C
As of 7:51 PM on Wednesday 22 Oct 2014 (Local Time) from KABE Reporting Station
Light Rain Light Rain  
Wind Chill: 53°   Ceiling: 4700
Heat Index: 53°   Visibility: 8mi
Dew Point: 47°   Wind: 15mph
Humidity: 80%   Direction: 350°N
Pressure: 29.89"   Gusts: 21mph
Location:  40.8463°N, 75.1731°W
Report Text: KABE 222351Z 35013G18KT 8SM -RA OVC047 12/08 A2989 RMK AO2 SLP122 P0002 60002 T01170083 10139 20117 58001
Loading
Personal Weather Stations






























Interactive Weather Map New forecast layout! Learn more

10-Day Weather Forecast

Advertisements
Track Severe Weather on mobile